Airport View

Enter AWOS ICAO identifier for current METAR.

ex. KFNL

KTVY 300435Z AUTO 00000KT 10SM CLR 03/00 A3026 RMK AO2

30 Oct 2020 04:44

Frequency: 119.725

Phone: 435-882-6648

Other Area AWOS: KU42 - KSLC - KHIF - KPVU

TAF AMD KSLC 300245Z 3002/3106 15005KT P6SM SKC FM302100 21006KT P6SM SKC FM310300 15005KT P6SM SKC